Aeroporto :
LOGIN :

Iscrizione | Disclaimer

   EN    FR    IT 

 










Sommario :    VFR   VFR Marginale   IFR   IFR Intensivo   IFR Molto Intensivo
Visibilità : 
Base nubi : 
>= 8 km
>= 3000ft
5 / 8 km
1000 / 3000 ft
1500m / 5 km
500 / 1000 ft
800 / 1500m
200 / 500 ft
< 800m
< 200 ft
Simboli :   Temporali  Nebbia  Neve Forte  Precipitazioni Forti  Vento > 20 kt
SIGMETs :   Varie  Temporali  Ghiacco  Turbolenza  Onda orograficha  Ceneri Vulcaniche







- Altitudine del aeroporto : 121 ft
- Codice IATA : HUY
- Carte del aeroporto


EGNJ - Humberside

ULTIMO METAR :
  • 241550Z 04004KT 020V080 6000 FEW011 21/19 Q1016

METARs OBSOLETI :
  • 241520Z 36005KT 6000 FEW011 21/19 Q1016
  • 241450Z VRB03KT 6000 BKN010 22/19 Q1016
  • 241420Z 34004KT 310V030 6000 BKN011 21/18 Q1016
  • 241350Z 27004KT 240V310 6000 BKN012 22/18 Q1016
  • 241320Z 26005KT 230V290 7000 BKN012 21/19 Q1016

TAF TAF EGNJ
Valido dal 24 a 15 ore il 25 a 00 ore UTC


241402Z 2415/2424 34004KT 9999 SCT020
PROB30
TEMPO 2415/2416 3000 +SHRA TSRA BKN012 BKN048CB
PROB30
TEMPO 2416/2418 6000 SHRA
BECMG 2421/2424 3000 BR BKN004
PROB30 2422/2424 0300 FG BKN001
ATIS : +44 1652 682 020
Nessun NOTAM noto per questo aeroporto.
1 SIGMET conosciuto per la FIR London (EGTT) :
 
Temporali affogati
EGTT SIGMET 06 VALID 241400/241700 EGRR
EGTT LONDON FIR EMBD TS FCST WI N5429 E00041 - N5357 W00159 - N5500 W00259 - N5500 E00106 - N5429 E00041 TOP FL320 MOV NE 20KT NC=



MetMap, La meteo Aeronautica in un colpo d'occhio ! - Copyright ORBIFLY Dicembre 2007 - Disclaimer

ORBIFLY MET'MAP TEAM :

Programmazione e sviluppo : Alexandra Zaïnal
Concezione e sviluppo : Baudouin d'Aumeries
Co-Programmazione e sviluppo : Marc-Olivier Méhu
Supporto tecnico e logistico : Manuel Goepfert
Aiuto per la traduzione : Arnaldo La Scala

Contatto : metmap@orbifly.com




FONTI E CREDITI :

   NOAA